Time;durP1;ratioP1;P1;durP2;ratioP2;P2;SDS_P1;SDS_P2;PMS_P1;PMS_P2;Temp;Humidity;BMP_temperature;BMP_pressure;BME280_temperature;BME280_humidity;BME280_pressure;Samples;Min_cycle;Max_cycle;Signal;HPM_P1;HPM_P2
2022/02/06 00:01:21;;;;;;;;;;;;;;;;;;5031353;28;20289;-75
2022/02/06 00:03:47;;;;;;;;;;;;;;;;;;5032552;28;19920;-76
2022/02/06 00:06:12;;;;;;;;;;;;;;;;;;5030964;28;20361;-76
2022/02/06 00:08:39;;;;;;;;;;;;;;;;;;5032637;28;19948;-76
2022/02/06 00:11:05;;;;;;;;;;;;;;;;;;5031738;28;19916;-78
2022/02/06 00:13:31;;;;;;;;;;;;;;;;;;5032261;28;19909;-77
2022/02/06 00:15:56;;;;;;;;;;;;;;;;;;5030475;28;19923;-76
2022/02/06 00:18:21;;;;;;;;;;;;;;;;;;5032560;28;20007;-76
2022/02/06 00:20:52;;;;;;;;;;;;;;;;;;5030711;28;20304;-77
2022/02/06 00:23:19;;;;;;;;;;;;;;;;;;5032328;28;19912;-75
2022/02/06 00:25:58;;;;;;;;;;;;;;;;;;5030692;28;19909;-77
2022/02/06 00:41:29;;;;;;;;;;;;;;;;;;5032328;28;19913;-77
2022/02/06 00:43:55;;;;;;;;;;;;;;;;;;5031989;28;20086;-73
2022/02/06 00:46:22;;;;;;;;;;;;;;;;;;5032269;28;20000;-77
2022/02/06 00:48:55;;;;;;;;;;;;;;;;;;5030940;28;19909;-76
2022/02/06 00:51:30;;;;;;;;;;;;;;;;;;5032275;28;19909;-75
2022/02/06 00:53:56;;;;;;;;;;;;;;;;;;5030528;28;19912;-76
2022/02/06 00:56:21;;;;;;;;;;;;;;;;;;5029999;28;20357;-76
2022/02/06 00:58:47;;;;;;;;;;;;;;;;;;5032060;28;19909;-76
2022/02/06 01:01:12;;;;;;;;;;;;;;;;;;5030205;28;20357;-72
2022/02/06 01:03:37;;;;;;;;;;;;;;;;;;5031198;28;19909;-72
2022/02/06 01:06:05;;;;;;;;;;;;;;;;;;5031262;28;20374;-72
2022/02/06 01:08:31;;;;;;;;;;;;;;;;;;5030114;28;19908;-72
2022/02/06 01:10:56;;;;;;;;;;;;;;;;;;5029219;28;20023;-73
2022/02/06 01:13:28;;;;;;;;;;;;;;;;;;5030487;28;19924;-72
2022/02/06 01:16:03;;;;;;;;;;;;;;;;;;5030000;28;19913;-72
2022/02/06 01:18:38;;;;;;;;;;;;;;;;;;5031589;28;19916;-72
2022/02/06 01:21:12;;;;;;;;;;;;;;;;;;5029486;28;19943;-73
2022/02/06 01:23:56;;;;;;;;;;;;;;;;;;5029286;28;19916;-72
2022/02/06 01:29:19;;;;;;;;;;;;;;;;;;5031198;28;19959;-74
2022/02/06 01:32:10;;;;;;;;;;;;;;;;;;5029340;28;19913;-72
2022/02/06 01:34:43;;;;;;;;;;;;;;;;;;5030571;28;20316;-73
2022/02/06 01:42:41;;;;;;;;;;;;;;;;;;5030444;28;19959;-73
2022/02/06 02:01:27;;;;;;;;;;;;;;;;;;5030556;28;19916;-72
2022/02/06 02:04:04;;;;;;;;;;;;;;;;;;5030971;28;19945;-72
2022/02/06 02:06:53;;;;;;;;;;;;;;;;;;5030828;28;19920;-72
2022/02/06 02:46:36;;;;;;;;;;;;;;;;;;5028931;28;19913;-72
2022/02/06 02:49:00;;;;;;;;;;;;;;;;;;5029345;28;19909;-72
2022/02/06 02:51:31;;;;;;;;;;;;;;;;;;5027486;28;19913;-71
2022/02/06 02:54:01;;;;;;;;;;;;;;;;;;5029538;28;19978;-72
2022/02/06 02:56:43;;;;;;;;;;;;;;;;;;5027799;28;19923;-71
2022/02/06 03:02:00;;;;;;;;;;;;;;;;;;5029976;28;19913;-73
2022/02/06 03:04:26;;;;;;;;;;;;;;;;;;5027837;28;20317;-71
2022/02/06 03:06:52;;;;;;;;;;;;;;;;;;5029326;28;19913;-72
2022/02/06 03:09:19;;;;;;;;;;;;;;;;;;5028084;28;19913;-72
2022/02/06 03:11:44;;;;;;;;;;;;;;;;;;5028142;28;19963;-70
2022/02/06 03:14:15;;;;;;;;;;;;;;;;;;5028944;28;19909;-73
2022/02/06 03:16:49;;;;;;;;;;;;;;;;;;5026802;28;19917;-72
2022/02/06 03:19:17;;;;;;;;;;;;;;;;;;5028826;28;19916;-72
2022/02/06 03:21:44;;;;;;;;;;;;;;;;;;5011235;28;19943;-73
2022/02/06 03:24:23;;;;;;;;;;;;;;;;;;5029487;28;19909;-72
2022/02/06 03:26:50;;;;;;;;;;;;;;;;;;5028285;28;19952;-72
2022/02/06 03:29:16;;;;;;;;;;;;;;;;;;5027782;28;19917;-72
2022/02/06 03:31:42;;;;;;;;;;;;;;;;;;5010624;28;19913;-72
2022/02/06 03:34:08;;;;;;;;;;;;;;;;;;5029334;28;20000;-72
2022/02/06 03:36:34;;;;;;;;;;;;;;;;;;5028093;28;20023;-73
2022/02/06 03:38:59;;;;;;;;;;;;;;;;;;5027943;28;20284;-72
2022/02/06 03:41:27;;;;;;;;;;;;;;;;;;5027686;28;20377;-72
2022/02/06 03:46:35;;;;;;;;;;;;;;;;;;5028771;28;19988;-72
2022/02/06 03:49:13;;;;;;;;;;;;;;;;;;5029276;28;19909;-73
2022/02/06 03:51:38;;;;;;;;;;;;;;;;;;5027101;28;19913;-72
2022/02/06 03:54:07;;;;;;;;;;;;;;;;;;5028874;28;19921;-72
2022/02/06 03:56:33;;;;;;;;;;;;;;;;;;5027272;28;19967;-72
2022/02/06 03:58:59;;;;;;;;;;;;;;;;;;5028696;28;19940;-72
2022/02/06 04:01:25;;;;;;;;;;;;;;;;;;5028423;28;19909;-73
2022/02/06 04:03:50;;;;;;;;;;;;;;;;;;5032529;28;19919;-72
2022/02/06 04:06:16;;;;;;;;;;;;;;;;;;5030942;28;19927;-72
2022/02/06 04:08:42;;;;;;;;;;;;;;;;;;5032486;28;19909;-72
2022/02/06 04:11:15;;;;;;;;;;;;;;;;;;5030772;28;20167;-72
2022/02/06 04:13:57;;;;;;;;;;;;;;;;;;5030315;28;20365;-72
2022/02/06 04:16:36;;;;;;;;;;;;;;;;;;5030659;28;20217;-73
2022/02/06 04:19:17;;;;;;;;;;;;;;;;;;5030505;28;20400;-72
2022/02/06 04:21:43;;;;;;;;;;;;;;;;;;5030843;28;19909;-71
2022/02/06 04:24:08;;;;;;;;;;;;;;;;;;5032180;28;19916;-73
2022/02/06 04:26:34;;;;;;;;;;;;;;;;;;5030888;28;19939;-72
2022/02/06 04:28:59;;;;;;;;;;;;;;;;;;5030394;28;19909;-73
2022/02/06 04:31:24;;;;;;;;;;;;;;;;;;5030213;28;20167;-71
2022/02/06 04:33:51;;;;;;;;;;;;;;;;;;5031741;28;19913;-72
2022/02/06 04:36:17;;;;;;;;;;;;;;;;;;5030165;28;20365;-71
2022/02/06 04:39:05;;;;;;;;;;;;;;;;;;5032077;28;19912;-72
2022/02/06 04:41:50;;;;;;;;;;;;;;;;;;5030527;28;19917;-73
2022/02/06 04:52:19;;;;;;;;;;;;;;;;;;5031995;28;19919;-72
2022/02/06 05:16:56;;;;;;;;;;;;;;;;;;5010927;28;19960;-73
2022/02/06 05:33:58;;;;;;;;;;;;;;;;;;5030968;28;19985;-74
2022/02/06 05:36:24;;;;;;;;;;;;;;;;;;5029520;28;19908;-74
2022/02/06 05:38:49;;;;;;;;;;;;;;;;;;5030879;28;20012;-74
2022/02/06 05:41:14;;;;;;;;;;;;;;;;;;5029216;28;20003;-72
2022/02/06 05:43:40;;;;;;;;;;;;;;;;;;5030386;28;20213;-75
2022/02/06 05:46:05;;;;;;;;;;;;;;;;;;5030518;28;20374;-73
2022/02/06 05:48:31;;;;;;;;;;;;;;;;;;5028686;28;19967;-73
2022/02/06 05:50:56;;;;;;;;;;;;;;;;;;5029107;28;20426;-73
2022/02/06 05:53:21;;;;;;;;;;;;;;;;;;5030674;28;19913;-72
2022/02/06 05:55:47;;;;;;;;;;;;;;;;;;5029014;28;19919;-73
2022/02/06 05:58:12;;;;;;;;;;;;;;;;;;5030175;28;19908;-73
2022/02/06 06:00:38;;;;;;;;;;;;;;;;;;5044633;28;20020;-74
2022/02/06 06:03:04;;;;;;;;;;;;;;;;;;5031073;28;20282;-73
2022/02/06 06:05:30;;;;;;;;;;;;;;;;;;5031079;28;20028;-73
2022/02/06 06:07:55;;;;;;;;;;;;;;;;;;5031202;28;20415;-73
2022/02/06 06:10:21;;;;;;;;;;;;;;;;;;5030581;28;19920;-73
2022/02/06 06:12:46;;;;;;;;;;;;;;;;;;5028835;28;19913;-73
2022/02/06 06:15:12;;;;;;;;;;;;;;;;;;5029102;28;19920;-73
2022/02/06 06:17:38;;;;;;;;;;;;;;;;;;5029127;28;19955;-74
2022/02/06 06:20:07;;;;;;;;;;;;;;;;;;5030179;28;19915;-74
2022/02/06 06:22:32;;;;;;;;;;;;;;;;;;5028898;28;19916;-73
2022/02/06 06:25:01;;;;;;;;;;;;;;;;;;5029956;28;19909;-74
2022/02/06 06:27:27;;;;;;;;;;;;;;;;;;5028583;28;19917;-72
2022/02/06 06:29:52;;;;;;;;;;;;;;;;;;5029130;28;19917;-72
2022/02/06 06:32:17;;;;;;;;;;;;;;;;;;5028327;28;19909;-71
2022/02/06 06:34:43;;;;;;;;;;;;;;;;;;5029633;28;19913;-70
2022/02/06 06:37:08;;;;;;;;;;;;;;;;;;5027717;28;19959;-70
2022/02/06 06:39:42;;;;;;;;;;;;;;;;;;5026540;28;19952;-69
2022/02/06 06:42:08;;;;;;;;;;;;;;;;;;5029727;28;20007;-72
2022/02/06 06:44:34;;;;;;;;;;;;;;;;;;5028763;28;20008;-71
2022/02/06 06:47:00;;;;;;;;;;;;;;;;;;5028253;28;20131;-71
2022/02/06 06:49:25;;;;;;;;;;;;;;;;;;5029339;28;19908;-70
2022/02/06 06:51:52;;;;;;;;;;;;;;;;;;5028201;28;19916;-71
2022/02/06 06:54:22;;;;;;;;;;;;;;;;;;5027884;28;20015;-70
2022/02/06 06:57:01;;;;;;;;;;;;;;;;;;5029469;28;19996;-70
2022/02/06 07:02:16;;;;;;;;;;;;;;;;;;5029837;28;20007;-71
2022/02/06 07:04:42;;;;;;;;;;;;;;;;;;5028075;28;19955;-69
2022/02/06 07:07:08;;;;;;;;;;;;;;;;;;5028069;28;19944;-74
2022/02/06 07:09:34;;;;;;;;;;;;;;;;;;5011442;28;19920;-71
2022/02/06 07:11:59;;;;;;;;;;;;;;;;;;5028009;28;19909;-70
2022/02/06 07:14:27;;;;;;;;;;;;;;;;;;5028633;28;19921;-71
2022/02/06 07:16:53;;;;;;;;;;;;;;;;;;5029441;28;19927;-71
2022/02/06 07:19:18;;;;;;;;;;;;;;;;;;5011565;28;19921;-72
2022/02/06 07:21:44;;;;;;;;;;;;;;;;;;5028102;28;19949;-69
2022/02/06 07:24:09;;;;;;;;;;;;;;;;;;5029670;28;20331;-71
2022/02/06 07:26:35;;;;;;;;;;;;;;;;;;5027898;28;20292;-71
2022/02/06 07:29:01;;;;;;;;;;;;;;;;;;5030020;28;20270;-71
2022/02/06 07:31:27;;;;;;;;;;;;;;;;;;5027787;28;20439;-71
2022/02/06 07:33:53;;;;;;;;;;;;;;;;;;5028158;28;20011;-70
2022/02/06 07:36:20;;;;;;;;;;;;;;;;;;5030522;28;19921;-71
2022/02/06 07:38:45;;;;;;;;;;;;;;;;;;5033504;28;20331;-71
2022/02/06 07:41:12;;;;;;;;;;;;;;;;;;5031694;28;19921;-72
2022/02/06 07:43:37;;;;;;;;;;;;;;;;;;5032923;28;20023;-70
2022/02/06 07:46:08;;;;;;;;;;;;;;;;;;5032861;28;19999;-71
2022/02/06 07:48:33;;;;;;;;;;;;;;;;;;5031676;28;19919;-72
2022/02/06 07:50:58;;;;;;;;;;;;;;;;;;5033329;28;20024;-71
2022/02/06 07:53:24;;;;;;;;;;;;;;;;;;5031654;28;20336;-71
2022/02/06 07:55:51;;;;;;;;;;;;;;;;;;5031762;28;19909;-70
2022/02/06 07:58:17;;;;;;;;;;;;;;;;;;5032668;28;19912;-70
2022/02/06 08:00:42;;;;;;;;;;;;;;;;;;5027708;28;20288;-71
2022/02/06 08:03:07;;;;;;;;;;;;;;;;;;5013344;28;19909;-73
2022/02/06 08:05:33;;;;;;;;;;;;;;;;;;5012684;28;20329;-73
2022/02/06 08:08:00;;;;;;;;;;;;;;;;;;5011277;28;19909;-71
2022/02/06 08:10:26;;;;;;;;;;;;;;;;;;5011276;28;20369;-69
2022/02/06 08:12:55;;;;;;;;;;;;;;;;;;5011474;28;19909;-72
2022/02/06 08:15:20;;;;;;;;;;;;;;;;;;5014548;28;19924;-74
2022/02/06 08:17:46;;;;;;;;;;;;;;;;;;5031078;28;19913;-72
2022/02/06 08:20:13;;;;;;;;;;;;;;;;;;5031330;28;20098;-70
2022/02/06 08:22:38;;;;;;;;;;;;;;;;;;5032579;28;20221;-69
2022/02/06 08:25:05;;;;;;;;;;;;;;;;;;5032486;28;19952;-68
2022/02/06 08:27:30;;;;;;;;;;;;;;;;;;5031113;28;19959;-71
2022/02/06 08:29:57;;;;;;;;;;;;;;;;;;5032432;28;19951;-69
2022/02/06 08:32:23;;;;;;;;;;;;;;;;;;5030228;28;19912;-71
2022/02/06 08:34:49;;;;;;;;;;;;;;;;;;5032188;28;19913;-70
2022/02/06 08:37:14;;;;;;;;;;;;;;;;;;5030611;28;20249;-69
2022/02/06 08:39:40;;;;;;;;;;;;;;;;;;5031887;28;19948;-70
2022/02/06 08:42:08;;;;;;;;;;;;;;;;;;5030661;28;19913;-70
2022/02/06 08:44:34;;;;;;;;;;;;;;;;;;5014239;28;20012;-71
2022/02/06 08:47:00;;;;;;;;;;;;;;;;;;5029426;28;20001;-70
2022/02/06 08:49:25;;;;;;;;;;;;;;;;;;5031043;28;19920;-69
2022/02/06 08:51:51;;;;;;;;;;;;;;;;;;5030495;28;20358;-70
2022/02/06 08:54:17;;;;;;;;;;;;;;;;;;5031946;28;19917;-70
2022/02/06 08:56:42;;;;;;;;;;;;;;;;;;5031830;28;19954;-71
2022/02/06 08:59:10;;;;;;;;;;;;;;;;;;5032091;28;19909;-70
2022/02/06 09:01:37;;;;;;;;;;;;;;;;;;5031427;28;20452;-71
2022/02/06 09:04:02;;;;;;;;;;;;;;;;;;5030840;28;19964;-70
2022/02/06 09:06:28;;;;;;;;;;;;;;;;;;5030464;28;19962;-71
2022/02/06 09:08:56;;;;;;;;;;;;;;;;;;5031934;28;20376;-70
2022/02/06 09:11:23;;;;;;;;;;;;;;;;;;5031860;28;20272;-70
2022/02/06 09:13:48;;;;;;;;;;;;;;;;;;5030409;28;19920;-70
2022/02/06 09:16:14;;;;;;;;;;;;;;;;;;5029997;28;19909;-69
2022/02/06 09:18:39;;;;;;;;;;;;;;;;;;5029356;28;19915;-69
2022/02/06 09:21:04;;;;;;;;;;;;;;;;;;5031234;28;19909;-70
2022/02/06 09:23:30;;;;;;;;;;;;;;;;;;5030926;28;20353;-70
2022/02/06 09:25:55;;;;;;;;;;;;;;;;;;5030015;28;19975;-69
2022/02/06 09:28:21;;;;;;;;;;;;;;;;;;5030848;28;19975;-69
2022/02/06 09:30:47;;;;;;;;;;;;;;;;;;5030506;28;19913;-71
2022/02/06 09:35:38;;;;;;;;;;;;;;;;;;5030808;28;19964;-70
2022/02/06 09:38:03;;;;;;;;;;;;;;;;;;5030211;28;19909;-69
2022/02/06 09:40:32;;;;;;;;;;;;;;;;;;5030300;28;19921;-72
2022/02/06 09:42:58;;;;;;;;;;;;;;;;;;5029151;28;19910;-70
2022/02/06 09:45:25;;;;;;;;;;;;;;;;;;5029356;28;20361;-71
2022/02/06 09:47:51;;;;;;;;;;;;;;;;;;5030297;28;19916;-69
2022/02/06 09:50:17;;;;;;;;;;;;;;;;;;5030499;28;20357;-70
2022/02/06 09:52:44;;;;;;;;;;;;;;;;;;5029542;28;19956;-71
2022/02/06 09:55:16;;;;;;;;;;;;;;;;;;5028807;28;20420;-70
2022/02/06 10:00:16;;;;;;;;;;;;;;;;;;5030440;28;19913;-70
2022/02/06 10:02:47;;;;;;;;;;;;;;;;;;5028341;28;19909;-71
2022/02/06 10:05:13;;;;;;;;;;;;;;;;;;5031919;28;20795;-71
2022/02/06 10:07:44;;;;;;;;;;;;;;;;;;5030266;28;20451;-71
2022/02/06 10:10:10;;;;;;;;;;;;;;;;;;5030532;28;20332;-70
2022/02/06 10:12:37;;;;;;;;;;;;;;;;;;5030068;28;19960;-72
2022/02/06 10:15:05;;;;;;;;;;;;;;;;;;5028024;28;19917;-73
2022/02/06 10:17:32;;;;;;;;;;;;;;;;;;5029698;28;19924;-71
2022/02/06 10:19:59;;;;;;;;;;;;;;;;;;5028766;28;20281;-71
2022/02/06 10:22:37;;;;;;;;;;;;;;;;;;5028635;28;19908;-71
2022/02/06 10:25:04;;;;;;;;;;;;;;;;;;5028831;28;19931;-71
2022/02/06 10:27:48;;;;;;;;;;;;;;;;;;5028837;28;19909;-70
2022/02/06 10:30:29;;;;;;;;;;;;;;;;;;5027631;28;20222;-70
2022/02/06 10:32:55;;;;;;;;;;;;;;;;;;5028252;28;19913;-72
2022/02/06 10:35:20;;;;;;;;;;;;;;;;;;5029507;28;20388;-69
2022/02/06 10:37:46;;;;;;;;;;;;;;;;;;5028404;28;20373;-70
2022/02/06 10:40:12;;;;;;;;;;;;;;;;;;5028195;28;19975;-70
2022/02/06 10:42:41;;;;;;;;;;;;;;;;;;5028017;28;19908;-71
2022/02/06 10:45:25;;;;;;;;;;;;;;;;;;5028229;28;19950;-71
2022/02/06 10:47:52;;;;;;;;;;;;;;;;;;5024734;28;19932;-71
2022/02/06 10:50:19;;;;;;;;;;;;;;;;;;5008696;28;19913;-72
2022/02/06 10:52:46;;;;;;;;;;;;;;;;;;5024614;28;19909;-71
2022/02/06 10:55:13;;;;;;;;;;;;;;;;;;5008151;28;20000;-71
2022/02/06 10:57:52;;;;;;;;;;;;;;;;;;5009472;28;19988;-71
2022/02/06 11:00:24;;;;;;;;;;;;;;;;;;5008138;28;19909;-72
2022/02/06 11:02:59;;;;;;;;;;;;;;;;;;5028516;28;19915;-74
2022/02/06 11:05:34;;;;;;;;;;;;;;;;;;5029241;28;19924;-74
2022/02/06 11:08:02;;;;;;;;;;;;;;;;;;5028616;28;19931;-74
2022/02/06 11:10:31;;;;;;;;;;;;;;;;;;5027397;28;19935;-73
2022/02/06 11:12:59;;;;;;;;;;;;;;;;;;5029528;28;19958;-74
2022/02/06 11:15:40;;;;;;;;;;;;;;;;;;5027900;28;19961;-74
2022/02/06 11:18:09;;;;;;;;;;;;;;;;;;5008700;28;20588;-73
2022/02/06 11:20:35;;;;;;;;;;;;;;;;;;5025606;28;19917;-73
2022/02/06 11:23:04;;;;;;;;;;;;;;;;;;5009584;28;20236;-73
2022/02/06 11:25:33;;;;;;;;;;;;;;;;;;5010064;28;19909;-73
2022/02/06 11:28:00;;;;;;;;;;;;;;;;;;5024852;28;19909;-73
2022/02/06 11:30:25;;;;;;;;;;;;;;;;;;5009721;28;19956;-74
2022/02/06 11:32:52;;;;;;;;;;;;;;;;;;5027743;28;19947;-73
2022/02/06 11:35:21;;;;;;;;;;;;;;;;;;5029250;28;19924;-74
2022/02/06 11:46:11;;;;;;;;;;;;;;;;;;5029126;28;19919;-74
2022/02/06 11:48:37;;;;;;;;;;;;;;;;;;5027442;28;19919;-74
2022/02/06 11:51:04;;;;;;;;;;;;;;;;;;5029095;28;20336;-73
2022/02/06 11:53:32;;;;;;;;;;;;;;;;;;5029492;28;20214;-74
2022/02/06 11:55:58;;;;;;;;;;;;;;;;;;5027863;28;19920;-74
2022/02/06 11:58:33;;;;;;;;;;;;;;;;;;5029364;28;19909;-73
2022/02/06 12:01:05;;;;;;;;;;;;;;;;;;5027606;28;19966;-73
2022/02/06 12:03:49;;;;;;;;;;;;;;;;;;5028817;28;19945;-76
2022/02/06 12:06:15;;;;;;;;;;;;;;;;;;5027360;28;20018;-73
2022/02/06 12:08:44;;;;;;;;;;;;;;;;;;5027232;28;20132;-73
2022/02/06 12:11:13;;;;;;;;;;;;;;;;;;5011157;28;19917;-73
2022/02/06 12:13:39;;;;;;;;;;;;;;;;;;5026818;28;19917;-74
2022/02/06 12:16:06;;;;;;;;;;;;;;;;;;5028191;28;19932;-74
2022/02/06 12:18:33;;;;;;;;;;;;;;;;;;5029155;28;20431;-73
2022/02/06 12:21:09;;;;;;;;;;;;;;;;;;5027381;28;20028;-74
2022/02/06 12:23:36;;;;;;;;;;;;;;;;;;5030617;28;20273;-74
2022/02/06 12:26:02;;;;;;;;;;;;;;;;;;5030905;28;20305;-73
2022/02/06 12:28:31;;;;;;;;;;;;;;;;;;5032361;28;19955;-73
2022/02/06 12:31:18;;;;;;;;;;;;;;;;;;5029600;28;20019;-73
2022/02/06 12:33:52;;;;;;;;;;;;;;;;;;5030590;28;20004;-74
2022/02/06 12:39:23;;;;;;;;;;;;;;;;;;5031659;28;20344;-75
2022/02/06 12:41:49;;;;;;;;;;;;;;;;;;5030476;28;19909;-74
2022/02/06 12:44:16;;;;;;;;;;;;;;;;;;5030687;28;20377;-74
2022/02/06 12:46:43;;;;;;;;;;;;;;;;;;5029442;28;19967;-73
2022/02/06 12:49:09;;;;;;;;;;;;;;;;;;5031520;28;19913;-73
2022/02/06 12:51:38;;;;;;;;;;;;;;;;;;5031698;28;20451;-73
2022/02/06 12:54:11;;;;;;;;;;;;;;;;;;5030504;28;19917;-75
2022/02/06 12:56:37;;;;;;;;;;;;;;;;;;5029825;28;20008;-74
2022/02/06 12:59:03;;;;;;;;;;;;;;;;;;5030360;28;19919;-72
2022/02/06 13:01:32;;;;;;;;;;;;;;;;;;5030122;28;20369;-73
2022/02/06 13:03:57;;;;;;;;;;;;;;;;;;5030196;28;19917;-74
2022/02/06 13:06:24;;;;;;;;;;;;;;;;;;5030730;28;19917;-74
2022/02/06 13:08:50;;;;;;;;;;;;;;;;;;5030696;28;19948;-73
2022/02/06 13:11:23;;;;;;;;;;;;;;;;;;5030332;28;19948;-73
2022/02/06 13:13:53;;;;;;;;;;;;;;;;;;5030035;28;19913;-74
2022/02/06 13:25:06;;;;;;;;;;;;;;;;;;5031695;28;19915;-75
2022/02/06 13:30:50;;;;;;;;;;;;;;;;;;5031546;28;20288;-74
2022/02/06 13:38:42;;;;;;;;;;;;;;;;;;5030974;28;19909;-73
2022/02/06 13:41:20;;;;;;;;;;;;;;;;;;5029623;28;20039;-74
2022/02/06 13:43:48;;;;;;;;;;;;;;;;;;5029518;28;20373;-75
2022/02/06 13:46:17;;;;;;;;;;;;;;;;;;5029884;28;20035;-75
2022/02/06 13:48:47;;;;;;;;;;;;;;;;;;5029003;28;20012;-74
2022/02/06 13:51:12;;;;;;;;;;;;;;;;;;5030901;28;19916;-75
2022/02/06 13:53:37;;;;;;;;;;;;;;;;;;5030529;28;19917;-74
2022/02/06 13:56:06;;;;;;;;;;;;;;;;;;5029701;28;19908;-75
2022/02/06 13:58:33;;;;;;;;;;;;;;;;;;5029318;28;19967;-73
2022/02/06 14:00:58;;;;;;;;;;;;;;;;;;5029368;28;19986;-74
2022/02/06 14:03:39;;;;;;;;;;;;;;;;;;5030608;28;19913;-74
2022/02/06 14:06:04;;;;;;;;;;;;;;;;;;5029609;28;20405;-73
2022/02/06 14:08:33;;;;;;;;;;;;;;;;;;5031352;28;19955;-73
2022/02/06 14:11:11;;;;;;;;;;;;;;;;;;5031571;28;20270;-73
2022/02/06 14:13:37;;;;;;;;;;;;;;;;;;5029396;28;19925;-73
2022/02/06 14:16:04;;;;;;;;;;;;;;;;;;5030429;28;19909;-75
2022/02/06 14:18:29;;;;;;;;;;;;;;;;;;5025249;28;19913;-74
2022/02/06 14:20:59;;;;;;;;;;;;;;;;;;5009356;28;19910;-73
2022/02/06 14:23:25;;;;;;;;;;;;;;;;;;5010610;28;19968;-73
2022/02/06 14:25:51;;;;;;;;;;;;;;;;;;5009029;28;19948;-74
2022/02/06 14:28:19;;;;;;;;;;;;;;;;;;5009952;28;19960;-75
2022/02/06 14:30:45;;;;;;;;;;;;;;;;;;5009765;28;19985;-73
2022/02/06 14:33:12;;;;;;;;;;;;;;;;;;5019320;28;19952;-74
2022/02/06 14:35:58;;;;;;;;;;;;;;;;;;5028692;28;19916;-75
2022/02/06 14:38:29;;;;;;;;;;;;;;;;;;5028631;28;20043;-74
2022/02/06 14:43:35;;;;;;;;;;;;;;;;;;5030053;28;19970;-74
2022/02/06 14:46:01;;;;;;;;;;;;;;;;;;5028910;28;19909;-74
2022/02/06 14:48:27;;;;;;;;;;;;;;;;;;5027656;28;19913;-74
2022/02/06 14:50:52;;;;;;;;;;;;;;;;;;5028652;28;19915;-73
2022/02/06 14:53:19;;;;;;;;;;;;;;;;;;5029554;28;20357;-73
2022/02/06 14:55:45;;;;;;;;;;;;;;;;;;5029228;28;19909;-73
2022/02/06 14:58:11;;;;;;;;;;;;;;;;;;5028202;28;20288;-74
2022/02/06 15:00:41;;;;;;;;;;;;;;;;;;5028550;28;19995;-73
2022/02/06 15:03:06;;;;;;;;;;;;;;;;;;5027380;28;19967;-74
2022/02/06 15:05:32;;;;;;;;;;;;;;;;;;5028092;28;19913;-73
2022/02/06 15:07:57;;;;;;;;;;;;;;;;;;5027750;28;19971;-74
2022/02/06 15:10:23;;;;;;;;;;;;;;;;;;5027477;28;19953;-73
2022/02/06 15:12:48;;;;;;;;;;;;;;;;;;5029395;28;19936;-73
2022/02/06 15:15:16;;;;;;;;;;;;;;;;;;5028930;28;19967;-73
2022/02/06 15:17:42;;;;;;;;;;;;;;;;;;5029715;28;20463;-73
2022/02/06 15:20:07;;;;;;;;;;;;;;;;;;5029089;28;19916;-73
2022/02/06 15:22:32;;;;;;;;;;;;;;;;;;5029251;28;20357;-75
2022/02/06 15:24:58;;;;;;;;;;;;;;;;;;5027820;28;19936;-74
2022/02/06 15:27:24;;;;;;;;;;;;;;;;;;5027997;28;19913;-73
2022/02/06 15:29:49;;;;;;;;;;;;;;;;;;5028436;28;19936;-74
2022/02/06 15:32:17;;;;;;;;;;;;;;;;;;5030198;28;19974;-73
2022/02/06 15:34:44;;;;;;;;;;;;;;;;;;5029238;28;20413;-73
2022/02/06 15:37:13;;;;;;;;;;;;;;;;;;5029939;28;20283;-73
2022/02/06 15:39:39;;;;;;;;;;;;;;;;;;5029339;28;19924;-73
2022/02/06 15:42:08;;;;;;;;;;;;;;;;;;5033539;28;19909;-73
2022/02/06 15:44:33;;;;;;;;;;;;;;;;;;5032046;28;20261;-73
2022/02/06 15:46:58;;;;;;;;;;;;;;;;;;5029708;28;19916;-74
2022/02/06 15:49:24;;;;;;;;;;;;;;;;;;5027825;28;19909;-74
2022/02/06 15:51:49;;;;;;;;;;;;;;;;;;5029270;28;19909;-74
2022/02/06 15:54:15;;;;;;;;;;;;;;;;;;5027881;28;20063;-73
2022/02/06 15:56:40;;;;;;;;;;;;;;;;;;5029663;28;19909;-74
2022/02/06 15:59:05;;;;;;;;;;;;;;;;;;5032382;28;19909;-73
2022/02/06 16:01:31;;;;;;;;;;;;;;;;;;5033709;28;19947;-74
2022/02/06 16:03:56;;;;;;;;;;;;;;;;;;5031069;28;20017;-73
2022/02/06 16:06:22;;;;;;;;;;;;;;;;;;5032771;28;19913;-74
2022/02/06 16:08:48;;;;;;;;;;;;;;;;;;5031080;28;19986;-72
2022/02/06 16:11:13;;;;;;;;;;;;;;;;;;5032859;28;19913;-73
2022/02/06 16:13:38;;;;;;;;;;;;;;;;;;5031401;28;19928;-73
2022/02/06 16:16:04;;;;;;;;;;;;;;;;;;5031569;28;19909;-73
2022/02/06 16:18:29;;;;;;;;;;;;;;;;;;5030866;28;20347;-74
2022/02/06 16:20:55;;;;;;;;;;;;;;;;;;5032414;28;20001;-74
2022/02/06 16:23:24;;;;;;;;;;;;;;;;;;5031587;28;20000;-74
2022/02/06 16:25:49;;;;;;;;;;;;;;;;;;5030623;28;20012;-73
2022/02/06 16:28:14;;;;;;;;;;;;;;;;;;5032949;28;19909;-73
2022/02/06 16:30:42;;;;;;;;;;;;;;;;;;5030914;28;19959;-73
2022/02/06 16:33:07;;;;;;;;;;;;;;;;;;5030606;28;19920;-73
2022/02/06 16:35:33;;;;;;;;;;;;;;;;;;5031959;28;19917;-73
2022/02/06 16:37:58;;;;;;;;;;;;;;;;;;5032058;28;20277;-73
2022/02/06 16:40:24;;;;;;;;;;;;;;;;;;5032031;28;19917;-73
2022/02/06 16:42:49;;;;;;;;;;;;;;;;;;5030686;28;19916;-73
2022/02/06 16:45:15;;;;;;;;;;;;;;;;;;5032251;28;20039;-74
2022/02/06 16:47:40;;;;;;;;;;;;;;;;;;5030800;28;20412;-74
2022/02/06 16:50:06;;;;;;;;;;;;;;;;;;5029748;28;19932;-74
2022/02/06 16:52:31;;;;;;;;;;;;;;;;;;5032016;28;19909;-74
2022/02/06 16:54:57;;;;;;;;;;;;;;;;;;5031416;28;20436;-73
2022/02/06 16:57:22;;;;;;;;;;;;;;;;;;5032013;28;20000;-74
2022/02/06 16:59:47;;;;;;;;;;;;;;;;;;5032176;28;19924;-74
2022/02/06 17:02:13;;;;;;;;;;;;;;;;;;5030435;28;19971;-74
2022/02/06 17:04:40;;;;;;;;;;;;;;;;;;5030482;28;19920;-74
2022/02/06 17:07:05;;;;;;;;;;;;;;;;;;5031953;28;19909;-74
2022/02/06 17:09:30;;;;;;;;;;;;;;;;;;5031056;28;19909;-74
2022/02/06 17:11:57;;;;;;;;;;;;;;;;;;5030387;28;20231;-73
2022/02/06 17:14:23;;;;;;;;;;;;;;;;;;5031718;28;19913;-74
2022/02/06 17:16:48;;;;;;;;;;;;;;;;;;5031799;28;19913;-74
2022/02/06 17:19:14;;;;;;;;;;;;;;;;;;5030024;28;19920;-75
2022/02/06 17:21:42;;;;;;;;;;;;;;;;;;5031219;28;19939;-75
2022/02/06 17:24:08;;;;;;;;;;;;;;;;;;5031537;28;19919;-75
2022/02/06 17:26:34;;;;;;;;;;;;;;;;;;5029757;28;20016;-74
2022/02/06 17:29:00;;;;;;;;;;;;;;;;;;5029968;28;19915;-75
2022/02/06 17:31:25;;;;;;;;;;;;;;;;;;5029944;28;20281;-74
2022/02/06 17:33:51;;;;;;;;;;;;;;;;;;5031218;28;19917;-75
2022/02/06 17:36:16;;;;;;;;;;;;;;;;;;5029268;28;19913;-73
2022/02/06 17:38:41;;;;;;;;;;;;;;;;;;5031084;28;19913;-74
2022/02/06 17:41:07;;;;;;;;;;;;;;;;;;5030077;28;19967;-74
2022/02/06 17:43:34;;;;;;;;;;;;;;;;;;5029778;28;19921;-75
2022/02/06 17:46:00;;;;;;;;;;;;;;;;;;5031179;28;19909;-75
2022/02/06 17:48:26;;;;;;;;;;;;;;;;;;5030888;28;19913;-74
2022/02/06 17:50:53;;;;;;;;;;;;;;;;;;5029003;28;20028;-74
2022/02/06 17:53:19;;;;;;;;;;;;;;;;;;5029606;28;19935;-73
2022/02/06 17:55:44;;;;;;;;;;;;;;;;;;5030700;28;19924;-74
2022/02/06 17:58:10;;;;;;;;;;;;;;;;;;5029818;28;19932;-73
2022/02/06 18:00:37;;;;;;;;;;;;;;;;;;5030578;28;20011;-75
2022/02/06 18:03:02;;;;;;;;;;;;;;;;;;5029071;28;19913;-74
2022/02/06 18:05:30;;;;;;;;;;;;;;;;;;5029225;28;19946;-75
2022/02/06 18:07:56;;;;;;;;;;;;;;;;;;5030765;28;19917;-73
2022/02/06 18:10:21;;;;;;;;;;;;;;;;;;5029455;28;20452;-75
2022/02/06 18:12:47;;;;;;;;;;;;;;;;;;5029541;28;19912;-72
2022/02/06 18:15:13;;;;;;;;;;;;;;;;;;5031563;28;19917;-73
2022/02/06 18:17:39;;;;;;;;;;;;;;;;;;5029741;28;19967;-74
2022/02/06 18:20:05;;;;;;;;;;;;;;;;;;5030092;28;20268;-75
2022/02/06 18:22:31;;;;;;;;;;;;;;;;;;5012479;28;19959;-74
2022/02/06 18:24:56;;;;;;;;;;;;;;;;;;5029158;28;20293;-73
2022/02/06 18:27:22;;;;;;;;;;;;;;;;;;5029172;28;19916;-74
2022/02/06 18:29:47;;;;;;;;;;;;;;;;;;5030400;28;20324;-75
2022/02/06 18:32:14;;;;;;;;;;;;;;;;;;5030407;28;19909;-74
2022/02/06 18:34:39;;;;;;;;;;;;;;;;;;5028850;28;19989;-73
2022/02/06 18:37:04;;;;;;;;;;;;;;;;;;5025093;28;20388;-74
2022/02/06 18:39:30;;;;;;;;;;;;;;;;;;5010196;28;19918;-73
2022/02/06 18:41:55;;;;;;;;;;;;;;;;;;5010371;28;19914;-74
2022/02/06 18:44:21;;;;;;;;;;;;;;;;;;5010176;28;19909;-74
2022/02/06 18:46:47;;;;;;;;;;;;;;;;;;5010399;28;19914;-74
2022/02/06 18:49:18;;;;;;;;;;;;;;;;;;5009532;28;20336;-74
2022/02/06 18:51:44;;;;;;;;;;;;;;;;;;5026272;28;20012;-73
2022/02/06 18:54:12;;;;;;;;;;;;;;;;;;5027906;28;20023;-73
2022/02/06 18:56:38;;;;;;;;;;;;;;;;;;5028066;28;20369;-74
2022/02/06 18:59:05;;;;;;;;;;;;;;;;;;5028349;28;19909;-73
2022/02/06 19:01:31;;;;;;;;;;;;;;;;;;5028271;28;19913;-73
2022/02/06 19:03:56;;;;;;;;;;;;;;;;;;5028636;28;20401;-74
2022/02/06 19:06:22;;;;;;;;;;;;;;;;;;5027753;28;20368;-74
2022/02/06 19:08:49;;;;;;;;;;;;;;;;;;5028308;28;19924;-74
2022/02/06 19:11:23;;;;;;;;;;;;;;;;;;5029538;28;19956;-74
2022/02/06 19:13:49;;;;;;;;;;;;;;;;;;5029531;28;19917;-74
2022/02/06 19:16:15;;;;;;;;;;;;;;;;;;5027909;28;19934;-73
2022/02/06 19:18:41;;;;;;;;;;;;;;;;;;5029663;28;20216;-73
2022/02/06 19:21:08;;;;;;;;;;;;;;;;;;5027313;28;20329;-73
2022/02/06 19:23:34;;;;;;;;;;;;;;;;;;5027892;28;20029;-74
2022/02/06 19:26:02;;;;;;;;;;;;;;;;;;5029247;28;20007;-73
2022/02/06 19:28:30;;;;;;;;;;;;;;;;;;5029921;28;20336;-74
2022/02/06 19:30:55;;;;;;;;;;;;;;;;;;5028256;28;19909;-73
2022/02/06 19:33:22;;;;;;;;;;;;;;;;;;5031035;28;19919;-73